Flight Track Log - Related Links

Times and Time Zones

All times are in EDT time to prevent confusion due to time zone crossing. See the LYM1725 flight status page for this flight to view local times or setup timezone preferences in your user account.

Time Position Orientation Groundspeed Altitude Reporting Facility
EDT Latitude Longitude Course Direction KTS MPH feet Rate Location/Type
Thu 09:33:25 PM 42.9797 -108.2864 122° Southeast 222 255 11,300  Level Salt Lake Center
Thu 09:34:27 PM 42.9436 -108.2083 122° Southeast 223 257 13,400 1,707 Climbing Salt Lake Center
Thu 09:35:28 PM 42.9081 -108.1375 124° Southeast 230 265 14,800 1,279 Climbing Salt Lake Center
Thu 09:36:29 PM 42.8689 -108.0622 125° Southeast 244 281 16,000 1,220 Climbing Salt Lake Center
Thu 09:37:31 PM 42.8172 -107.9767 129° Southeast 256 295 17,300 1,073 Climbing Salt Lake Center
Thu 09:38:32 PM 42.7700 -107.9025 131° Southeast 266 306 18,200 1,073 Climbing Salt Lake Center
Thu 09:39:34 PM 42.7164 -107.8203 132° Southeast 263 303 19,500 1,161 Climbing Salt Lake Center
Thu 09:40:36 PM 42.6700 -107.7486 131° Southeast 263 303 20,600 732 Climbing Salt Lake Center
Thu 09:41:37 PM 42.6233 -107.6744 131° Southeast 266 306 21,000 195 Climbing Salt Lake Center
Thu 09:42:39 PM 42.5600 -107.5767 131° Southeast 293 337 21,000  Level Salt Lake Center
Thu 09:43:40 PM 42.5028 -107.4900 132° Southeast 312 359 21,000 -49 Level Salt Lake Center
Thu 09:44:42 PM 42.4383 -107.3906 131° Southeast 315 362 20,900  Descending Salt Lake Center
Thu 09:45:22 PM 42.3986 -107.3319 133° Southeast 319 367 21,000  Climbing Denver Center
Thu 09:46:24 PM 42.3414 -107.2442 131° Southeast 322 371 20,900 -48 Descending Denver Center
Thu 09:47:26 PM 42.2814 -107.1556 132° Southeast 327 376 20,900  Level Denver Center
Thu 09:48:28 PM 42.2136 -107.0553 132° Southeast 326 375 20,900 48 Level Denver Center
Thu 09:49:30 PM 42.1486 -106.9522 130° Southeast 323 372 21,000  Climbing Denver Center
Thu 09:50:32 PM 42.0942 -106.8661 130° Southeast 319 367 20,900  Descending Denver Center
Thu 09:51:34 PM 42.0272 -106.7658 132° Southeast 321 369 21,000 48 Climbing Denver Center
Thu 09:52:36 PM 41.9722 -106.6800 131° Southeast 319 367 21,000 -48 Level Denver Center
Thu 09:53:38 PM 41.9061 -106.5797 132° Southeast 320 368 20,900 48 Descending Denver Center
Thu 09:54:40 PM 41.8500 -106.4942 131° Southeast 323 372 21,100  Climbing Denver Center
Thu 09:55:54 PM 41.7844 -106.3933 131° Southeast 324 373 20,900 -44 Descending Denver Center
Thu 09:56:57 PM 41.7189 -106.2928 131° Southeast 323 372 21,000  Climbing Denver Center
Thu 09:57:59 PM 41.6517 -106.1925 132° Southeast 323 372 20,900 -48 Descending Denver Center
Thu 09:59:01 PM 41.5944 -106.1067 132° Southeast 324 373 20,900 97 Level Denver Center
Thu 10:00:03 PM 41.5283 -106.0056 131° Southeast 324 373 21,100 -265 Climbing Denver Center
Thu 10:01:17 PM 41.4503 -105.8919 132° Southeast 327 376 20,300 -662 Descending Denver Center
Thu 10:02:19 PM 41.3886 -105.8003 132° Southeast 342 394 19,600 -774 Descending Denver Center
Thu 10:03:21 PM 41.3181 -105.6919 131° Southeast 349 402 18,700 -823 Descending Denver Center
Thu 10:04:23 PM 41.2550 -105.6031 133° Southeast 347 399 17,900 -537 Descending Denver Center
Thu 10:05:24 PM 41.2019 -105.5289 134° Southeast 348 400 17,600 -726 Descending Denver Center
Thu 10:06:27 PM 41.1200 -105.4108 133° Southeast 342 394 16,400 -1,056 Descending Denver Center
Thu 10:07:29 PM 41.0569 -105.3233 134° Southeast 342 394 15,400 -1,122 Descending Denver Center
Thu 10:08:30 PM 40.9864 -105.2197 132° Southeast 336 387 14,100 -1,122 Descending Denver Center
Thu 10:09:32 PM 40.9264 -105.1283 131° Southeast 328 377 13,100 -532 Descending Denver Center
Thu 10:10:34 PM 40.8672 -105.0372 131° Southeast 324 373 13,000  Descending Denver Center
Thu 10:11:36 PM 40.8033 -104.9528 135° Southeast 323 372 13,100 -290 Climbing Denver Center
Thu 10:12:38 PM 40.7200 -104.8958 153° Southeast 353 406 12,400 -732 Descending Denver Center
Thu 10:13:39 PM 40.6319 -104.8906 177° South 320 368 11,600 -683 Descending Denver Center
Thu 10:14:41 PM 40.5378 -104.9000 184° South 315 362 11,000 -242 Descending Denver Center
Thu 10:15:43 PM 40.4492 -104.9058 183° South 317 365 11,100 49 Climbing Denver Center
Thu 10:16:44 PM 40.3614 -104.9125 183° South 318 366 11,100  Level Denver Center
Thu 10:17:46 PM 40.2872 -104.8914 168° South 319 367 11,100  Level Denver Center
Thu 10:18:48 PM 40.1817 -104.8592 167° South 317 365 11,100  Level Denver Center
Thu 10:19:49 PM 40.0914 -104.8314 167° South 311 358 11,100 -49 Level Denver Center
Thu 10:20:51 PM 40.0069 -104.8067 167° South 310 357 11,000  Descending Denver Center
Thu 10:21:53 PM 39.9233 -104.7889 171° South 306 352 11,100  Climbing Denver Center
Thu 10:23:06 PM 39.8442 -104.7783 174° South 273 314 11,000 -356 Descending Denver Center
Thu 10:24:08 PM 39.7572 -104.7758 179° South 256 295 10,300 -871 Descending Denver Center
Thu 10:25:10 PM 39.6881 -104.7833 185° South 249 287 9,200 -585 Descending Denver Center
Thu 10:26:11 PM 39.6683 -104.7100 109° East 225 259 9,100 -393 Descending Denver Center
Thu 10:27:12 PM 39.6864 -104.6689 60° Northeast 184 212 8,400 -829 Descending Denver Center
Thu 10:28:14 PM 39.7444 -104.6628 North 169 194 7,400 -871 Descending Denver Center
Thu 10:29:16 PM 39.7914 -104.6614 North 170 196 6,600 -919 Descending Denver Center
Thu 10:30:18 PM 39.8331 -104.6617 360° North 152 175 5,500 -1,065 Descending Denver Center
Thu 10:32:00 PM 39.8500 -104.6667 28° Northeast  Level FlightAware Approximate
Thu 10:39:00 PM 39.8617 -104.6732 28° Northeast  Level Estimated
Thu 10:40:00 PM 39.8617 -104.6732 28° Northeast  Level Estimated
Thu 10:41:00 PM 39.8617 -104.6732 28° Northeast  Level Estimated
Thu 10:42:00 PM 39.8617 -104.6732 28° Northeast  Level Estimated
Thu 10:43:00 PM 39.8617 -104.6732 28° Northeast  Level Estimated
Thu 10:44:00 PM 39.8617 -104.6732 28° Northeast  Level Estimated

Login

Don't have an account? Register now (free) for customized features, flight alerts, and more!